sensor_id;sensor_type;location;lat;lon;timestamp;P1;durP1;ratioP1;P2;durP2;ratioP2
77400;SDS011;66855;45.414;11.082;2023-05-10T00:00:27;6.90;;;4.20;;
77400;SDS011;66855;45.414;11.082;2023-05-10T00:02:54;5.40;;;4.40;;
77400;SDS011;66855;45.414;11.082;2023-05-10T00:05:21;3.90;;;3.30;;
77400;SDS011;66855;45.414;11.082;2023-05-10T00:07:48;5.70;;;3.70;;
77400;SDS011;66855;45.414;11.082;2023-05-10T00:10:14;5.60;;;3.80;;
77400;SDS011;66855;45.414;11.082;2023-05-10T00:12:41;6.20;;;3.80;;
77400;SDS011;66855;45.414;11.082;2023-05-10T00:15:08;6.30;;;3.30;;
77400;SDS011;66855;45.414;11.082;2023-05-10T00:17:35;4.10;;;2.90;;
77400;SDS011;66855;45.414;11.082;2023-05-10T00:20:03;3.80;;;2.80;;
77400;SDS011;66855;45.414;11.082;2023-05-10T00:22:31;4.00;;;3.70;;
77400;SDS011;66855;45.414;11.082;2023-05-10T00:24:58;3.20;;;2.10;;
77400;SDS011;66855;45.414;11.082;2023-05-10T00:27:25;3.40;;;2.60;;
77400;SDS011;66855;45.414;11.082;2023-05-10T00:29:52;3.30;;;2.40;;
77400;SDS011;66855;45.414;11.082;2023-05-10T00:32:19;3.80;;;2.80;;
77400;SDS011;66855;45.414;11.082;2023-05-10T00:34:46;4.00;;;2.80;;
77400;SDS011;66855;45.414;11.082;2023-05-10T00:37:13;4.50;;;2.60;;
77400;SDS011;66855;45.414;11.082;2023-05-10T00:39:39;4.00;;;2.50;;
77400;SDS011;66855;45.414;11.082;2023-05-10T00:42:06;2.40;;;1.60;;
77400;SDS011;66855;45.414;11.082;2023-05-10T00:44:33;2.70;;;2.20;;
77400;SDS011;66855;45.414;11.082;2023-05-10T00:47:00;3.00;;;2.10;;
77400;SDS011;66855;45.414;11.082;2023-05-10T00:49:27;4.70;;;2.00;;
77400;SDS011;66855;45.414;11.082;2023-05-10T00:51:55;4.30;;;1.80;;
77400;SDS011;66855;45.414;11.082;2023-05-10T00:54:21;2.30;;;1.80;;
77400;SDS011;66855;45.414;11.082;2023-05-10T00:56:50;2.60;;;1.80;;
77400;SDS011;66855;45.414;11.082;2023-05-10T00:59:18;4.00;;;1.50;;
77400;SDS011;66855;45.414;11.082;2023-05-10T01:01:45;2.20;;;1.60;;
77400;SDS011;66855;45.414;11.082;2023-05-10T01:04:13;2.80;;;2.20;;
77400;SDS011;66855;45.414;11.082;2023-05-10T01:06:41;2.70;;;1.40;;
77400;SDS011;66855;45.414;11.082;2023-05-10T01:09:07;3.40;;;1.40;;
77400;SDS011;66855;45.414;11.082;2023-05-10T01:11:35;1.90;;;1.70;;
77400;SDS011;66855;45.414;11.082;2023-05-10T01:14:03;2.40;;;1.60;;
77400;SDS011;66855;45.414;11.082;2023-05-10T01:16:37;1.90;;;1.60;;
77400;SDS011;66855;45.414;11.082;2023-05-10T01:19:05;1.90;;;1.10;;
77400;SDS011;66855;45.414;11.082;2023-05-10T01:30:05;3.20;;;1.40;;
77400;SDS011;66855;45.414;11.082;2023-05-10T01:35:34;2.50;;;1.20;;
77400;SDS011;66855;45.414;11.082;2023-05-10T01:43:37;1.40;;;0.90;;
77400;SDS011;66855;45.414;11.082;2023-05-10T01:46:10;1.20;;;1.10;;
77400;SDS011;66855;45.414;11.082;2023-05-10T01:48:47;2.10;;;1.20;;
77400;SDS011;66855;45.414;11.082;2023-05-10T01:51:19;3.60;;;2.30;;
77400;SDS011;66855;45.414;11.082;2023-05-10T01:53:49;3.00;;;1.80;;
77400;SDS011;66855;45.414;11.082;2023-05-10T01:56:19;2.90;;;1.60;;
77400;SDS011;66855;45.414;11.082;2023-05-10T01:58:47;1.90;;;1.50;;
77400;SDS011;66855;45.414;11.082;2023-05-10T02:01:15;2.00;;;1.80;;
77400;SDS011;66855;45.414;11.082;2023-05-10T02:03:43;3.00;;;1.60;;
77400;SDS011;66855;45.414;11.082;2023-05-10T02:06:10;2.00;;;1.50;;
77400;SDS011;66855;45.414;11.082;2023-05-10T02:08:39;2.10;;;1.60;;
77400;SDS011;66855;45.414;11.082;2023-05-10T02:11:06;5.10;;;1.90;;
77400;SDS011;66855;45.414;11.082;2023-05-10T02:13:34;2.90;;;1.80;;
77400;SDS011;66855;45.414;11.082;2023-05-10T02:16:02;2.20;;;1.50;;
77400;SDS011;66855;45.414;11.082;2023-05-10T02:18:31;2.20;;;1.60;;
77400;SDS011;66855;45.414;11.082;2023-05-10T02:21:01;2.60;;;1.60;;
77400;SDS011;66855;45.414;11.082;2023-05-10T02:23:29;3.50;;;1.50;;
77400;SDS011;66855;45.414;11.082;2023-05-10T02:25:56;1.80;;;1.30;;
77400;SDS011;66855;45.414;11.082;2023-05-10T02:28:23;3.60;;;1.70;;
77400;SDS011;66855;45.414;11.082;2023-05-10T02:30:51;3.20;;;1.60;;
77400;SDS011;66855;45.414;11.082;2023-05-10T02:33:19;2.30;;;1.40;;
77400;SDS011;66855;45.414;11.082;2023-05-10T02:35:46;2.10;;;1.80;;
77400;SDS011;66855;45.414;11.082;2023-05-10T02:38:14;4.60;;;2.00;;
77400;SDS011;66855;45.414;11.082;2023-05-10T02:40:42;2.40;;;1.70;;
77400;SDS011;66855;45.414;11.082;2023-05-10T02:43:12;2.20;;;1.70;;
77400;SDS011;66855;45.414;11.082;2023-05-10T02:45:40;4.30;;;1.60;;
77400;SDS011;66855;45.414;11.082;2023-05-10T02:48:08;3.10;;;2.00;;
77400;SDS011;66855;45.414;11.082;2023-05-10T02:50:35;2.90;;;2.00;;
77400;SDS011;66855;45.414;11.082;2023-05-10T02:53:04;2.70;;;1.80;;
77400;SDS011;66855;45.414;11.082;2023-05-10T02:55:35;3.10;;;1.80;;
77400;SDS011;66855;45.414;11.082;2023-05-10T02:58:04;2.20;;;2.00;;
77400;SDS011;66855;45.414;11.082;2023-05-10T03:00:31;3.30;;;1.60;;
77400;SDS011;66855;45.414;11.082;2023-05-10T03:02:58;4.10;;;1.90;;
77400;SDS011;66855;45.414;11.082;2023-05-10T03:05:26;2.90;;;1.60;;
77400;SDS011;66855;45.414;11.082;2023-05-10T03:07:53;3.00;;;1.80;;
77400;SDS011;66855;45.414;11.082;2023-05-10T03:10:21;3.10;;;1.60;;
77400;SDS011;66855;45.414;11.082;2023-05-10T03:18:09;3.90;;;2.10;;
77400;SDS011;66855;45.414;11.082;2023-05-10T03:20:43;5.00;;;2.10;;
77400;SDS011;66855;45.414;11.082;2023-05-10T03:25:48;3.40;;;2.10;;
77400;SDS011;66855;45.414;11.082;2023-05-10T03:28:16;7.90;;;2.20;;
77400;SDS011;66855;45.414;11.082;2023-05-10T03:30:44;2.70;;;2.00;;
77400;SDS011;66855;45.414;11.082;2023-05-10T03:33:12;5.20;;;2.10;;
77400;SDS011;66855;45.414;11.082;2023-05-10T03:35:42;3.30;;;2.10;;
77400;SDS011;66855;45.414;11.082;2023-05-10T03:38:10;3.30;;;2.10;;
77400;SDS011;66855;45.414;11.082;2023-05-10T03:40:37;2.50;;;2.00;;
77400;SDS011;66855;45.414;11.082;2023-05-10T03:45:33;3.10;;;2.30;;
77400;SDS011;66855;45.414;11.082;2023-05-10T03:48:00;3.20;;;2.00;;
77400;SDS011;66855;45.414;11.082;2023-05-10T03:50:26;3.70;;;2.10;;
77400;SDS011;66855;45.414;11.082;2023-05-10T03:52:57;2.70;;;1.90;;
77400;SDS011;66855;45.414;11.082;2023-05-10T03:55:26;2.80;;;1.70;;
77400;SDS011;66855;45.414;11.082;2023-05-10T03:57:52;2.60;;;1.60;;
77400;SDS011;66855;45.414;11.082;2023-05-10T04:00:21;3.20;;;2.10;;
77400;SDS011;66855;45.414;11.082;2023-05-10T04:02:49;3.00;;;1.90;;
77400;SDS011;66855;45.414;11.082;2023-05-10T04:05:18;4.00;;;2.00;;
77400;SDS011;66855;45.414;11.082;2023-05-10T04:07:45;2.70;;;1.80;;
77400;SDS011;66855;45.414;11.082;2023-05-10T04:10:14;5.00;;;1.90;;
77400;SDS011;66855;45.414;11.082;2023-05-10T04:12:41;5.60;;;1.90;;
77400;SDS011;66855;45.414;11.082;2023-05-10T04:15:08;2.10;;;1.70;;
77400;SDS011;66855;45.414;11.082;2023-05-10T04:17:35;2.00;;;1.80;;
77400;SDS011;66855;45.414;11.082;2023-05-10T04:20:02;2.10;;;1.60;;
77400;SDS011;66855;45.414;11.082;2023-05-10T04:22:30;2.70;;;1.70;;
77400;SDS011;66855;45.414;11.082;2023-05-10T04:24:58;3.10;;;1.90;;
77400;SDS011;66855;45.414;11.082;2023-05-10T04:27:25;3.80;;;1.80;;
77400;SDS011;66855;45.414;11.082;2023-05-10T04:29:52;1.70;;;1.60;;
77400;SDS011;66855;45.414;11.082;2023-05-10T04:32:18;2.90;;;1.60;;
77400;SDS011;66855;45.414;11.082;2023-05-10T04:34:47;2.70;;;1.90;;
77400;SDS011;66855;45.414;11.082;2023-05-10T04:37:13;2.60;;;1.50;;
77400;SDS011;66855;45.414;11.082;2023-05-10T04:39:40;2.80;;;1.90;;
77400;SDS011;66855;45.414;11.082;2023-05-10T04:42:08;2.90;;;1.90;;
77400;SDS011;66855;45.414;11.082;2023-05-10T04:44:35;4.20;;;1.60;;
77400;SDS011;66855;45.414;11.082;2023-05-10T04:47:02;2.20;;;1.50;;
77400;SDS011;66855;45.414;11.082;2023-05-10T04:49:29;2.10;;;1.60;;
77400;SDS011;66855;45.414;11.082;2023-05-10T04:51:56;4.20;;;1.80;;
77400;SDS011;66855;45.414;11.082;2023-05-10T04:54:23;1.80;;;1.60;;
77400;SDS011;66855;45.414;11.082;2023-05-10T04:56:50;3.80;;;1.70;;
77400;SDS011;66855;45.414;11.082;2023-05-10T04:59:20;2.00;;;1.80;;
77400;SDS011;66855;45.414;11.082;2023-05-10T05:01:46;4.10;;;2.10;;
77400;SDS011;66855;45.414;11.082;2023-05-10T05:04:14;3.10;;;1.80;;
77400;SDS011;66855;45.414;11.082;2023-05-10T05:06:42;3.10;;;2.00;;
77400;SDS011;66855;45.414;11.082;2023-05-10T05:09:09;6.20;;;2.50;;
77400;SDS011;66855;45.414;11.082;2023-05-10T05:11:36;3.10;;;2.10;;
77400;SDS011;66855;45.414;11.082;2023-05-10T05:14:03;2.50;;;1.80;;
77400;SDS011;66855;45.414;11.082;2023-05-10T05:16:30;3.20;;;1.60;;
77400;SDS011;66855;45.414;11.082;2023-05-10T05:18:57;2.50;;;1.90;;
77400;SDS011;66855;45.414;11.082;2023-05-10T05:21:23;3.00;;;1.90;;
77400;SDS011;66855;45.414;11.082;2023-05-10T05:23:54;3.50;;;1.40;;
77400;SDS011;66855;45.414;11.082;2023-05-10T05:26:21;1.90;;;1.30;;
77400;SDS011;66855;45.414;11.082;2023-05-10T05:28:48;2.10;;;1.90;;
77400;SDS011;66855;45.414;11.082;2023-05-10T05:31:19;4.00;;;2.10;;
77400;SDS011;66855;45.414;11.082;2023-05-10T05:33:48;2.40;;;1.80;;
77400;SDS011;66855;45.414;11.082;2023-05-10T05:36:16;3.50;;;2.40;;
77400;SDS011;66855;45.414;11.082;2023-05-10T05:38:43;2.60;;;2.00;;
77400;SDS011;66855;45.414;11.082;2023-05-10T05:41:10;1.70;;;1.20;;
77400;SDS011;66855;45.414;11.082;2023-05-10T05:43:38;3.20;;;1.70;;
77400;SDS011;66855;45.414;11.082;2023-05-10T05:46:05;2.30;;;1.90;;
77400;SDS011;66855;45.414;11.082;2023-05-10T05:48:32;1.90;;;1.20;;
77400;SDS011;66855;45.414;11.082;2023-05-10T05:51:05;3.50;;;1.60;;
77400;SDS011;66855;45.414;11.082;2023-05-10T05:53:33;5.00;;;1.20;;
77400;SDS011;66855;45.414;11.082;2023-05-10T05:55:59;1.50;;;1.00;;
77400;SDS011;66855;45.414;11.082;2023-05-10T05:58:27;2.90;;;1.40;;
77400;SDS011;66855;45.414;11.082;2023-05-10T06:00:55;1.20;;;0.90;;
77400;SDS011;66855;45.414;11.082;2023-05-10T06:03:22;1.70;;;1.20;;
77400;SDS011;66855;45.414;11.082;2023-05-10T06:05:49;2.30;;;1.40;;
77400;SDS011;66855;45.414;11.082;2023-05-10T06:08:17;1.50;;;1.30;;
77400;SDS011;66855;45.414;11.082;2023-05-10T06:10:44;3.50;;;1.70;;
77400;SDS011;66855;45.414;11.082;2023-05-10T06:13:11;2.10;;;1.40;;
77400;SDS011;66855;45.414;11.082;2023-05-10T06:15:38;2.10;;;1.30;;
77400;SDS011;66855;45.414;11.082;2023-05-10T06:18:05;1.90;;;1.30;;
77400;SDS011;66855;45.414;11.082;2023-05-10T06:20:32;2.60;;;1.40;;
77400;SDS011;66855;45.414;11.082;2023-05-10T06:22:59;2.20;;;1.70;;
77400;SDS011;66855;45.414;11.082;2023-05-10T06:25:26;5.00;;;1.60;;
77400;SDS011;66855;45.414;11.082;2023-05-10T06:27:53;2.00;;;1.60;;
77400;SDS011;66855;45.414;11.082;2023-05-10T06:30:24;4.80;;;1.70;;
77400;SDS011;66855;45.414;11.082;2023-05-10T06:32:57;1.90;;;1.40;;
77400;SDS011;66855;45.414;11.082;2023-05-10T06:35:26;4.00;;;2.20;;
77400;SDS011;66855;45.414;11.082;2023-05-10T06:37:53;2.70;;;1.80;;
77400;SDS011;66855;45.414;11.082;2023-05-10T06:40:20;3.50;;;2.10;;
77400;SDS011;66855;45.414;11.082;2023-05-10T06:42:47;4.40;;;2.20;;
77400;SDS011;66855;45.414;11.082;2023-05-10T06:45:14;2.00;;;1.50;;
77400;SDS011;66855;45.414;11.082;2023-05-10T06:47:42;1.90;;;1.40;;
77400;SDS011;66855;45.414;11.082;2023-05-10T06:50:09;2.90;;;1.90;;
77400;SDS011;66855;45.414;11.082;2023-05-10T06:52:38;2.50;;;1.60;;
77400;SDS011;66855;45.414;11.082;2023-05-10T06:55:04;1.80;;;1.40;;
77400;SDS011;66855;45.414;11.082;2023-05-10T06:57:35;3.30;;;1.60;;
77400;SDS011;66855;45.414;11.082;2023-05-10T07:00:02;4.00;;;2.00;;
77400;SDS011;66855;45.414;11.082;2023-05-10T07:02:33;3.20;;;1.60;;
77400;SDS011;66855;45.414;11.082;2023-05-10T07:05:02;4.30;;;1.70;;
77400;SDS011;66855;45.414;11.082;2023-05-10T07:07:29;2.50;;;1.80;;
77400;SDS011;66855;45.414;11.082;2023-05-10T07:09:56;2.10;;;1.80;;
77400;SDS011;66855;45.414;11.082;2023-05-10T07:12:24;2.00;;;1.60;;
77400;SDS011;66855;45.414;11.082;2023-05-10T07:14:51;2.00;;;1.30;;
77400;SDS011;66855;45.414;11.082;2023-05-10T07:17:18;2.30;;;1.60;;
77400;SDS011;66855;45.414;11.082;2023-05-10T07:19:47;2.70;;;1.40;;
77400;SDS011;66855;45.414;11.082;2023-05-10T07:22:14;2.90;;;1.30;;
77400;SDS011;66855;45.414;11.082;2023-05-10T07:24:42;2.60;;;1.60;;
77400;SDS011;66855;45.414;11.082;2023-05-10T07:27:09;2.10;;;1.50;;
77400;SDS011;66855;45.414;11.082;2023-05-10T07:29:36;2.40;;;1.60;;
77400;SDS011;66855;45.414;11.082;2023-05-10T07:32:04;2.40;;;1.70;;
77400;SDS011;66855;45.414;11.082;2023-05-10T07:34:32;2.00;;;1.50;;
77400;SDS011;66855;45.414;11.082;2023-05-10T07:36:59;2.60;;;2.00;;
77400;SDS011;66855;45.414;11.082;2023-05-10T07:39:26;2.50;;;1.80;;
77400;SDS011;66855;45.414;11.082;2023-05-10T07:41:54;3.50;;;2.10;;
77400;SDS011;66855;45.414;11.082;2023-05-10T07:44:22;4.70;;;1.90;;
77400;SDS011;66855;45.414;11.082;2023-05-10T07:46:49;3.00;;;2.00;;
77400;SDS011;66855;45.414;11.082;2023-05-10T07:49:16;3.40;;;2.30;;
77400;SDS011;66855;45.414;11.082;2023-05-10T07:51:45;3.80;;;2.20;;
77400;SDS011;66855;45.414;11.082;2023-05-10T07:54:11;3.00;;;2.10;;
77400;SDS011;66855;45.414;11.082;2023-05-10T07:56:39;3.30;;;2.10;;
77400;SDS011;66855;45.414;11.082;2023-05-10T07:59:07;3.50;;;1.90;;
77400;SDS011;66855;45.414;11.082;2023-05-10T08:01:37;2.40;;;1.60;;
77400;SDS011;66855;45.414;11.082;2023-05-10T08:04:04;2.30;;;1.80;;
77400;SDS011;66855;45.414;11.082;2023-05-10T08:06:31;2.20;;;1.90;;
77400;SDS011;66855;45.414;11.082;2023-05-10T08:08:58;3.20;;;2.00;;
77400;SDS011;66855;45.414;11.082;2023-05-10T08:11:25;2.60;;;1.50;;
77400;SDS011;66855;45.414;11.082;2023-05-10T08:13:51;1.70;;;1.20;;
77400;SDS011;66855;45.414;11.082;2023-05-10T08:16:18;2.40;;;1.50;;
77400;SDS011;66855;45.414;11.082;2023-05-10T08:18:46;1.80;;;1.40;;
77400;SDS011;66855;45.414;11.082;2023-05-10T08:21:14;2.30;;;1.60;;
77400;SDS011;66855;45.414;11.082;2023-05-10T08:23:42;1.60;;;1.20;;
77400;SDS011;66855;45.414;11.082;2023-05-10T08:26:10;2.20;;;1.30;;
77400;SDS011;66855;45.414;11.082;2023-05-10T08:28:37;2.40;;;1.40;;
77400;SDS011;66855;45.414;11.082;2023-05-10T08:31:04;2.10;;;1.90;;
77400;SDS011;66855;45.414;11.082;2023-05-10T08:33:31;2.10;;;1.40;;
77400;SDS011;66855;45.414;11.082;2023-05-10T08:35:58;1.80;;;1.30;;
77400;SDS011;66855;45.414;11.082;2023-05-10T08:38:25;2.40;;;1.20;;
77400;SDS011;66855;45.414;11.082;2023-05-10T08:40:53;1.90;;;1.00;;
77400;SDS011;66855;45.414;11.082;2023-05-10T08:43:25;2.30;;;1.30;;
77400;SDS011;66855;45.414;11.082;2023-05-10T08:45:55;2.20;;;1.60;;
77400;SDS011;66855;45.414;11.082;2023-05-10T08:48:26;1.60;;;1.10;;
77400;SDS011;66855;45.414;11.082;2023-05-10T08:50:57;1.80;;;1.50;;
77400;SDS011;66855;45.414;11.082;2023-05-10T08:53:25;1.60;;;1.20;;
77400;SDS011;66855;45.414;11.082;2023-05-10T08:55:54;2.20;;;1.40;;
77400;SDS011;66855;45.414;11.082;2023-05-10T08:58:21;3.10;;;1.60;;
77400;SDS011;66855;45.414;11.082;2023-05-10T09:00:49;3.70;;;1.40;;
77400;SDS011;66855;45.414;11.082;2023-05-10T09:03:20;3.00;;;1.30;;
77400;SDS011;66855;45.414;11.082;2023-05-10T09:05:47;1.60;;;1.30;;
77400;SDS011;66855;45.414;11.082;2023-05-10T09:08:15;1.80;;;1.40;;
77400;SDS011;66855;45.414;11.082;2023-05-10T09:10:43;1.50;;;1.20;;
77400;SDS011;66855;45.414;11.082;2023-05-10T09:13:10;1.60;;;1.10;;
77400;SDS011;66855;45.414;11.082;2023-05-10T09:15:43;4.50;;;1.30;;
77400;SDS011;66855;45.414;11.082;2023-05-10T09:18:10;2.70;;;1.40;;
77400;SDS011;66855;45.414;11.082;2023-05-10T09:20:37;1.80;;;1.30;;
77400;SDS011;66855;45.414;11.082;2023-05-10T09:23:04;2.80;;;1.20;;
77400;SDS011;66855;45.414;11.082;2023-05-10T09:25:31;1.40;;;1.10;;
77400;SDS011;66855;45.414;11.082;2023-05-10T09:28:07;1.70;;;1.50;;
77400;SDS011;66855;45.414;11.082;2023-05-10T09:30:38;1.90;;;1.70;;
77400;SDS011;66855;45.414;11.082;2023-05-10T09:33:05;2.80;;;1.60;;
77400;SDS011;66855;45.414;11.082;2023-05-10T09:35:34;4.00;;;1.70;;
77400;SDS011;66855;45.414;11.082;2023-05-10T09:38:03;3.30;;;1.20;;
77400;SDS011;66855;45.414;11.082;2023-05-10T09:40:31;2.40;;;1.20;;
77400;SDS011;66855;45.414;11.082;2023-05-10T09:42:59;2.20;;;1.50;;
77400;SDS011;66855;45.414;11.082;2023-05-10T09:45:33;2.40;;;1.60;;
77400;SDS011;66855;45.414;11.082;2023-05-10T09:48:04;3.00;;;1.20;;
77400;SDS011;66855;45.414;11.082;2023-05-10T09:50:31;1.60;;;1.20;;
77400;SDS011;66855;45.414;11.082;2023-05-10T09:52:59;1.50;;;1.10;;
77400;SDS011;66855;45.414;11.082;2023-05-10T09:58:02;1.80;;;1.40;;
77400;SDS011;66855;45.414;11.082;2023-05-10T10:00:34;2.50;;;1.40;;
77400;SDS011;66855;45.414;11.082;2023-05-10T10:03:02;1.20;;;0.80;;
77400;SDS011;66855;45.414;11.082;2023-05-10T10:05:33;1.50;;;1.30;;
77400;SDS011;66855;45.414;11.082;2023-05-10T10:08:03;1.70;;;1.00;;
77400;SDS011;66855;45.414;11.082;2023-05-10T10:10:31;1.80;;;1.20;;
77400;SDS011;66855;45.414;11.082;2023-05-10T10:12:58;2.80;;;1.20;;
77400;SDS011;66855;45.414;11.082;2023-05-10T10:15:26;2.20;;;1.20;;
77400;SDS011;66855;45.414;11.082;2023-05-10T10:17:54;2.20;;;1.30;;
77400;SDS011;66855;45.414;11.082;2023-05-10T10:20:21;1.40;;;1.30;;
77400;SDS011;66855;45.414;11.082;2023-05-10T10:25:17;2.20;;;1.20;;
77400;SDS011;66855;45.414;11.082;2023-05-10T10:27:55;3.00;;;1.10;;
77400;SDS011;66855;45.414;11.082;2023-05-10T10:35:52;3.70;;;1.10;;
77400;SDS011;66855;45.414;11.082;2023-05-10T10:38:20;2.40;;;1.10;;
77400;SDS011;66855;45.414;11.082;2023-05-10T10:40:47;1.40;;;1.10;;
77400;SDS011;66855;45.414;11.082;2023-05-10T10:43:21;2.00;;;1.20;;
77400;SDS011;66855;45.414;11.082;2023-05-10T10:48:47;1.70;;;1.20;;
77400;SDS011;66855;45.414;11.082;2023-05-10T10:51:15;1.30;;;1.10;;
77400;SDS011;66855;45.414;11.082;2023-05-10T10:53:42;2.30;;;1.20;;
77400;SDS011;66855;45.414;11.082;2023-05-10T10:56:11;2.10;;;1.30;;
77400;SDS011;66855;45.414;11.082;2023-05-10T10:58:40;2.00;;;1.50;;
77400;SDS011;66855;45.414;11.082;2023-05-10T11:01:10;1.30;;;0.60;;
77400;SDS011;66855;45.414;11.082;2023-05-10T11:06:35;2.20;;;1.40;;
77400;SDS011;66855;45.414;11.082;2023-05-10T11:09:09;2.20;;;1.70;;
77400;SDS011;66855;45.414;11.082;2023-05-10T11:11:53;3.10;;;1.50;;
77400;SDS011;66855;45.414;11.082;2023-05-10T11:14:25;2.40;;;1.40;;
77400;SDS011;66855;45.414;11.082;2023-05-10T11:16:52;2.40;;;1.80;;
77400;SDS011;66855;45.414;11.082;2023-05-10T11:19:27;2.40;;;1.70;;
77400;SDS011;66855;45.414;11.082;2023-05-10T11:24:31;2.20;;;1.50;;
77400;SDS011;66855;45.414;11.082;2023-05-10T11:26:57;1.90;;;1.10;;
77400;SDS011;66855;45.414;11.082;2023-05-10T11:29:25;2.50;;;1.20;;
77400;SDS011;66855;45.414;11.082;2023-05-10T11:31:53;1.20;;;1.00;;
77400;SDS011;66855;45.414;11.082;2023-05-10T11:36:51;1.30;;;0.90;;
77400;SDS011;66855;45.414;11.082;2023-05-10T11:39:20;2.80;;;1.40;;
77400;SDS011;66855;45.414;11.082;2023-05-10T11:41:48;1.90;;;1.30;;
77400;SDS011;66855;45.414;11.082;2023-05-10T11:44:16;3.60;;;1.60;;
77400;SDS011;66855;45.414;11.082;2023-05-10T11:46:44;1.60;;;1.20;;
77400;SDS011;66855;45.414;11.082;2023-05-10T11:49:12;1.70;;;1.10;;
77400;SDS011;66855;45.414;11.082;2023-05-10T11:51:39;3.00;;;1.50;;
77400;SDS011;66855;45.414;11.082;2023-05-10T11:54:09;2.00;;;1.40;;
77400;SDS011;66855;45.414;11.082;2023-05-10T11:56:37;1.50;;;1.20;;
77400;SDS011;66855;45.414;11.082;2023-05-10T11:59:05;2.80;;;1.50;;
77400;SDS011;66855;45.414;11.082;2023-05-10T12:01:33;2.40;;;1.40;;
77400;SDS011;66855;45.414;11.082;2023-05-10T12:04:00;2.60;;;1.50;;
77400;SDS011;66855;45.414;11.082;2023-05-10T12:06:29;1.50;;;1.30;;
77400;SDS011;66855;45.414;11.082;2023-05-10T12:08:58;1.80;;;1.20;;
77400;SDS011;66855;45.414;11.082;2023-05-10T12:11:26;2.60;;;1.80;;
77400;SDS011;66855;45.414;11.082;2023-05-10T12:13:54;2.60;;;1.60;;
77400;SDS011;66855;45.414;11.082;2023-05-10T12:16:24;2.00;;;1.50;;
77400;SDS011;66855;45.414;11.082;2023-05-10T12:18:55;3.60;;;1.80;;
77400;SDS011;66855;45.414;11.082;2023-05-10T12:21:25;2.30;;;1.80;;
77400;SDS011;66855;45.414;11.082;2023-05-10T12:23:58;1.60;;;1.10;;
77400;SDS011;66855;45.414;11.082;2023-05-10T12:26:31;1.90;;;1.40;;
77400;SDS011;66855;45.414;11.082;2023-05-10T12:29:14;1.70;;;1.40;;
77400;SDS011;66855;45.414;11.082;2023-05-10T12:31:54;2.80;;;1.40;;
77400;SDS011;66855;45.414;11.082;2023-05-10T12:34:23;2.10;;;1.60;;
77400;SDS011;66855;45.414;11.082;2023-05-10T12:36:59;2.00;;;1.40;;
77400;SDS011;66855;45.414;11.082;2023-05-10T12:39:36;2.00;;;1.60;;
77400;SDS011;66855;45.414;11.082;2023-05-10T12:42:11;2.30;;;1.80;;
77400;SDS011;66855;45.414;11.082;2023-05-10T12:44:39;2.50;;;1.80;;
77400;SDS011;66855;45.414;11.082;2023-05-10T12:47:07;2.70;;;1.80;;
77400;SDS011;66855;45.414;11.082;2023-05-10T12:49:40;3.80;;;1.60;;
77400;SDS011;66855;45.414;11.082;2023-05-10T12:52:08;3.50;;;2.10;;
77400;SDS011;66855;45.414;11.082;2023-05-10T12:54:35;2.30;;;1.60;;
77400;SDS011;66855;45.414;11.082;2023-05-10T12:57:05;2.10;;;1.50;;
77400;SDS011;66855;45.414;11.082;2023-05-10T12:59:32;2.50;;;1.50;;
77400;SDS011;66855;45.414;11.082;2023-05-10T13:02:02;2.30;;;1.70;;
77400;SDS011;66855;45.414;11.082;2023-05-10T13:04:36;2.80;;;1.80;;
77400;SDS011;66855;45.414;11.082;2023-05-10T13:07:06;2.90;;;1.90;;
77400;SDS011;66855;45.414;11.082;2023-05-10T13:09:33;2.80;;;1.70;;
77400;SDS011;66855;45.414;11.082;2023-05-10T13:12:01;2.70;;;1.90;;
77400;SDS011;66855;45.414;11.082;2023-05-10T13:14:31;1.70;;;1.40;;
77400;SDS011;66855;45.414;11.082;2023-05-10T13:17:00;2.30;;;1.70;;
77400;SDS011;66855;45.414;11.082;2023-05-10T13:19:27;2.10;;;1.90;;
77400;SDS011;66855;45.414;11.082;2023-05-10T13:21:53;2.80;;;1.70;;
77400;SDS011;66855;45.414;11.082;2023-05-10T13:24:20;3.20;;;2.10;;
77400;SDS011;66855;45.414;11.082;2023-05-10T13:26:48;2.50;;;1.60;;
77400;SDS011;66855;45.414;11.082;2023-05-10T13:29:15;2.80;;;1.60;;
77400;SDS011;66855;45.414;11.082;2023-05-10T13:34:12;2.70;;;2.00;;
77400;SDS011;66855;45.414;11.082;2023-05-10T13:36:39;2.90;;;2.00;;
77400;SDS011;66855;45.414;11.082;2023-05-10T13:39:06;3.30;;;2.70;;
77400;SDS011;66855;45.414;11.082;2023-05-10T13:41:33;3.60;;;2.40;;
77400;SDS011;66855;45.414;11.082;2023-05-10T13:44:00;2.30;;;1.80;;
77400;SDS011;66855;45.414;11.082;2023-05-10T13:46:28;2.60;;;1.80;;
77400;SDS011;66855;45.414;11.082;2023-05-10T13:51:26;2.10;;;1.40;;
77400;SDS011;66855;45.414;11.082;2023-05-10T13:53:54;1.90;;;1.50;;
77400;SDS011;66855;45.414;11.082;2023-05-10T13:56:22;3.00;;;2.00;;
77400;SDS011;66855;45.414;11.082;2023-05-10T13:58:50;3.70;;;2.10;;
77400;SDS011;66855;45.414;11.082;2023-05-10T14:01:18;1.80;;;1.60;;
77400;SDS011;66855;45.414;11.082;2023-05-10T14:03:46;3.00;;;1.70;;
77400;SDS011;66855;45.414;11.082;2023-05-10T14:06:30;2.70;;;1.80;;
77400;SDS011;66855;45.414;11.082;2023-05-10T14:08:57;2.40;;;1.90;;
77400;SDS011;66855;45.414;11.082;2023-05-10T14:11:24;4.50;;;2.40;;
77400;SDS011;66855;45.414;11.082;2023-05-10T14:13:52;2.70;;;1.60;;
77400;SDS011;66855;45.414;11.082;2023-05-10T14:16:19;5.00;;;2.00;;
77400;SDS011;66855;45.414;11.082;2023-05-10T14:18:47;3.40;;;1.90;;
77400;SDS011;66855;45.414;11.082;2023-05-10T14:21:14;3.30;;;1.80;;
77400;SDS011;66855;45.414;11.082;2023-05-10T14:23:41;4.30;;;2.00;;
77400;SDS011;66855;45.414;11.082;2023-05-10T14:26:08;2.10;;;1.70;;
77400;SDS011;66855;45.414;11.082;2023-05-10T14:28:35;2.10;;;1.50;;
77400;SDS011;66855;45.414;11.082;2023-05-10T14:31:02;3.60;;;1.70;;
77400;SDS011;66855;45.414;11.082;2023-05-10T14:33:30;2.60;;;1.70;;
77400;SDS011;66855;45.414;11.082;2023-05-10T14:35:57;2.70;;;1.70;;
77400;SDS011;66855;45.414;11.082;2023-05-10T14:38:24;1.90;;;1.50;;
77400;SDS011;66855;45.414;11.082;2023-05-10T14:40:51;2.50;;;2.10;;
77400;SDS011;66855;45.414;11.082;2023-05-10T14:43:18;1.90;;;1.40;;
77400;SDS011;66855;45.414;11.082;2023-05-10T14:45:44;2.90;;;2.30;;
77400;SDS011;66855;45.414;11.082;2023-05-10T14:48:11;2.00;;;1.80;;
77400;SDS011;66855;45.414;11.082;2023-05-10T14:50:41;4.10;;;2.00;;
77400;SDS011;66855;45.414;11.082;2023-05-10T14:53:08;2.20;;;2.00;;
77400;SDS011;66855;45.414;11.082;2023-05-10T14:55:35;3.10;;;2.40;;
77400;SDS011;66855;45.414;11.082;2023-05-10T14:58:05;3.30;;;2.80;;
77400;SDS011;66855;45.414;11.082;2023-05-10T15:00:33;3.40;;;2.40;;
77400;SDS011;66855;45.414;11.082;2023-05-10T15:03:02;3.00;;;2.70;;
77400;SDS011;66855;45.414;11.082;2023-05-10T15:08:17;3.40;;;2.20;;
77400;SDS011;66855;45.414;11.082;2023-05-10T15:10:45;3.70;;;2.40;;
77400;SDS011;66855;45.414;11.082;2023-05-10T15:13:11;2.70;;;2.10;;
77400;SDS011;66855;45.414;11.082;2023-05-10T15:15:41;3.70;;;2.30;;
77400;SDS011;66855;45.414;11.082;2023-05-10T15:18:12;2.90;;;2.30;;
77400;SDS011;66855;45.414;11.082;2023-05-10T15:21:04;3.60;;;2.30;;
77400;SDS011;66855;45.414;11.082;2023-05-10T15:23:35;3.00;;;2.30;;
77400;SDS011;66855;45.414;11.082;2023-05-10T15:28:48;2.70;;;1.60;;
77400;SDS011;66855;45.414;11.082;2023-05-10T15:31:36;2.30;;;1.50;;
77400;SDS011;66855;45.414;11.082;2023-05-10T15:34:06;2.70;;;2.40;;
77400;SDS011;66855;45.414;11.082;2023-05-10T15:36:37;3.70;;;2.40;;
77400;SDS011;66855;45.414;11.082;2023-05-10T15:39:04;3.10;;;2.30;;